createdAt,value
2022-10-09T00:00:30.974Z,9.7
2022-10-09T00:01:31.572Z,10.2
2022-10-09T00:02:32.210Z,17.8
2022-10-09T00:03:32.756Z,15.2
2022-10-09T00:04:33.348Z,10.5
2022-10-09T00:05:33.989Z,9.1
2022-10-09T00:06:34.548Z,6.3
2022-10-09T00:07:35.136Z,13.3
2022-10-09T00:08:35.728Z,10.9
2022-10-09T00:09:36.321Z,8.7
2022-10-09T00:10:36.913Z,12.3
2022-10-09T00:11:37.523Z,9.2
2022-10-09T00:12:38.114Z,11.2
2022-10-09T00:13:38.711Z,7.5
2022-10-09T00:14:39.322Z,8.5
2022-10-09T00:15:39.915Z,12.2
2022-10-09T00:16:40.546Z,15.9
2022-10-09T00:17:41.105Z,10.3
2022-10-09T00:18:41.718Z,6.6
2022-10-09T00:19:42.312Z,5.7
2022-10-09T00:20:42.910Z,9.1
2022-10-09T00:21:43.498Z,9.1
2022-10-09T00:22:44.090Z,12.1
2022-10-09T00:23:44.687Z,9.9
2022-10-09T00:24:45.280Z,14.1
2022-10-09T00:25:45.875Z,12.4
2022-10-09T00:26:46.465Z,8.5
2022-10-09T00:27:47.058Z,9.3
2022-10-09T00:28:47.716Z,7.8
2022-10-09T00:29:48.281Z,7.0
2022-10-09T00:30:48.943Z,7.7
2022-10-09T00:31:49.543Z,12.4
2022-10-09T00:32:50.299Z,11.4
2022-10-09T00:33:51.078Z,10.6
2022-10-09T00:34:51.672Z,4.4
2022-10-09T00:35:52.266Z,7.5
2022-10-09T00:36:52.861Z,6.2
2022-10-09T00:37:53.455Z,17.1
2022-10-09T00:38:54.046Z,9.6
2022-10-09T00:39:54.643Z,12.0
2022-10-09T00:40:55.237Z,10.6
2022-10-09T00:41:55.834Z,13.9
2022-10-09T00:42:56.431Z,11.3
2022-10-09T00:43:57.022Z,10.1
2022-10-09T00:44:57.613Z,8.8
2022-10-09T00:45:58.227Z,10.1
2022-10-09T00:46:58.801Z,9.5
2022-10-09T00:47:59.395Z,8.8
2022-10-09T00:48:59.989Z,14.2
2022-10-09T00:50:00.589Z,12.6
2022-10-09T00:51:01.178Z,13.3
2022-10-09T00:52:01.775Z,11.0
2022-10-09T00:53:02.368Z,9.3
2022-10-09T00:54:02.966Z,8.3
2022-10-09T00:55:03.564Z,9.2
2022-10-09T00:56:04.175Z,13.7
2022-10-09T00:57:04.769Z,8.9
2022-10-09T00:58:05.373Z,8.8
2022-10-09T00:59:05.956Z,7.3
2022-10-09T01:00:06.552Z,14.2
2022-10-09T01:01:07.199Z,12.0
2022-10-09T01:02:07.889Z,10.0
2022-10-09T01:03:08.515Z,9.1
2022-10-09T01:04:09.110Z,8.0
2022-10-09T01:05:09.703Z,5.4
2022-10-09T01:06:10.299Z,6.1
2022-10-09T01:07:10.896Z,12.3
2022-10-09T01:08:11.487Z,6.6
2022-10-09T01:09:12.082Z,9.7
2022-10-09T01:10:12.675Z,8.3
2022-10-09T01:11:13.270Z,14.9
2022-10-09T01:12:13.865Z,9.1
2022-10-09T01:13:14.458Z,9.5
2022-10-09T01:14:15.054Z,9.4
2022-10-09T01:15:15.652Z,13.6
2022-10-09T01:16:20.255Z,10.4
2022-10-09T01:17:17.829Z,9.9
2022-10-09T01:18:18.426Z,17.9
2022-10-09T01:19:19.020Z,12.7
2022-10-09T01:20:19.616Z,16.8
2022-10-09T01:21:20.208Z,14.7
2022-10-09T01:22:20.804Z,15.1
2022-10-09T01:23:21.400Z,13.5
2022-10-09T01:24:21.995Z,18.2
2022-10-09T01:25:22.590Z,16.5
2022-10-09T01:26:23.184Z,17.9
2022-10-09T01:27:23.778Z,16.3
2022-10-09T01:28:24.439Z,10.0
2022-10-09T01:29:24.990Z,14.3
2022-10-09T01:30:25.583Z,8.9
2022-10-09T01:31:26.257Z,7.9
2022-10-09T01:32:26.807Z,17.6
2022-10-09T01:33:27.399Z,15.2
2022-10-09T01:34:27.994Z,10.3
2022-10-09T01:35:28.588Z,10.2
2022-10-09T01:36:29.183Z,15.6
2022-10-09T01:37:29.780Z,12.5
2022-10-09T01:38:30.370Z,8.3
2022-10-09T01:39:30.965Z,10.7
2022-10-09T01:40:31.561Z,11.3
2022-10-09T01:41:32.156Z,11.5
2022-10-09T01:42:32.753Z,11.0
2022-10-09T01:43:33.347Z,19.2
2022-10-09T01:44:33.940Z,10.6
2022-10-09T01:45:34.533Z,10.3
2022-10-09T01:46:35.176Z,9.2
2022-10-09T01:47:35.747Z,7.8
2022-10-09T01:48:36.341Z,9.7
2022-10-09T01:49:36.955Z,16.8
2022-10-09T01:50:37.548Z,6.9
2022-10-09T01:51:38.144Z,12.6
2022-10-09T01:52:41.317Z,9.0
2022-10-09T01:53:40.323Z,9.9
2022-10-09T01:54:40.919Z,8.4
2022-10-09T01:55:41.509Z,9.8
2022-10-09T01:56:42.104Z,10.8
2022-10-09T01:57:42.699Z,15.8
2022-10-09T01:58:43.290Z,14.8
2022-10-09T01:59:43.884Z,7.2
2022-10-09T02:00:44.479Z,14.0
2022-10-09T02:01:45.217Z,13.3
2022-10-09T02:02:46.227Z,12.1
2022-10-09T02:03:47.055Z,11.4
2022-10-09T02:04:47.649Z,10.4
2022-10-09T02:05:48.242Z,15.4
2022-10-09T02:06:48.836Z,14.4
2022-10-09T02:07:49.432Z,14.3
2022-10-09T02:08:50.524Z,18.5
2022-10-09T02:09:51.122Z,15.6
2022-10-09T02:10:51.723Z,17.5
2022-10-09T02:11:52.311Z,17.6
2022-10-09T02:12:52.905Z,8.8
2022-10-09T02:13:53.499Z,12.7
2022-10-09T02:14:54.093Z,10.6
2022-10-09T02:15:54.743Z,12.4
2022-10-09T02:16:55.313Z,11.4
2022-10-09T02:17:55.909Z,10.7
2022-10-09T02:18:56.502Z,11.7
2022-10-09T02:19:57.100Z,16.2
2022-10-09T02:20:57.695Z,12.0
2022-10-09T02:21:58.292Z,12.6
2022-10-09T02:22:58.886Z,13.9
2022-10-09T02:23:59.481Z,14.2
2022-10-09T02:25:00.084Z,14.0
2022-10-09T02:26:00.700Z,12.7
2022-10-09T02:27:01.285Z,12.7
2022-10-09T02:28:01.985Z,18.3
2022-10-09T02:29:02.518Z,20.0
2022-10-09T02:30:03.119Z,13.0
2022-10-09T02:31:03.799Z,11.8
2022-10-09T02:32:04.344Z,10.9
2022-10-09T02:33:04.940Z,15.4
2022-10-09T02:34:05.533Z,15.2
2022-10-09T02:35:06.128Z,12.9
2022-10-09T02:36:06.725Z,13.5
2022-10-09T02:37:07.326Z,16.1
2022-10-09T02:38:07.915Z,15.2
2022-10-09T02:39:08.509Z,23.0
2022-10-09T02:40:10.858Z,16.7
2022-10-09T02:41:09.714Z,13.1
2022-10-09T02:42:10.311Z,10.3
2022-10-09T02:43:10.917Z,15.1
2022-10-09T02:44:11.505Z,10.4
2022-10-09T02:45:12.103Z,20.5
2022-10-09T02:46:12.706Z,20.8
2022-10-09T02:47:13.286Z,17.8
2022-10-09T02:48:13.882Z,15.3
2022-10-09T02:49:14.476Z,16.7
2022-10-09T02:50:15.074Z,17.0
2022-10-09T02:51:15.667Z,18.3
2022-10-09T02:52:16.261Z,15.4
2022-10-09T02:53:16.856Z,20.0
2022-10-09T02:54:17.452Z,20.5
2022-10-09T02:55:18.045Z,17.7
2022-10-09T02:56:18.640Z,16.1
2022-10-09T02:57:19.235Z,12.6
2022-10-09T02:58:19.829Z,18.6
2022-10-09T02:59:20.421Z,13.0
2022-10-09T03:00:21.037Z,14.4
2022-10-09T03:01:21.687Z,12.7
2022-10-09T03:02:22.392Z,21.3
2022-10-09T03:03:23.047Z,17.9
2022-10-09T03:04:23.641Z,17.6
2022-10-09T03:05:24.235Z,16.0
2022-10-09T03:06:24.833Z,20.0
2022-10-09T03:07:25.428Z,20.6
2022-10-09T03:08:26.022Z,17.5
2022-10-09T03:09:29.212Z,18.9
2022-10-09T03:10:28.207Z,16.2
2022-10-09T03:11:28.795Z,15.9
2022-10-09T03:12:29.393Z,20.1
2022-10-09T03:13:30.004Z,18.3
2022-10-09T03:14:30.599Z,15.1
2022-10-09T03:15:31.194Z,18.4
2022-10-09T03:16:31.843Z,18.3
2022-10-09T03:17:32.404Z,18.4
2022-10-09T03:18:32.999Z,20.8
2022-10-09T03:19:33.593Z,20.4
2022-10-09T03:20:34.188Z,15.7
2022-10-09T03:21:34.786Z,25.2
2022-10-09T03:22:35.380Z,15.4
2022-10-09T03:23:35.990Z,18.1
2022-10-09T03:24:36.569Z,14.4
2022-10-09T03:25:37.162Z,14.9
2022-10-09T03:26:37.758Z,13.1
2022-10-09T03:27:38.353Z,15.1
2022-10-09T03:28:39.034Z,13.7
2022-10-09T03:29:39.604Z,9.8
2022-10-09T03:30:40.197Z,9.9
2022-10-09T03:31:51.980Z,9.1
2022-10-09T03:32:42.378Z,10.9
2022-10-09T03:33:42.971Z,11.9
2022-10-09T03:34:43.570Z,17.0
2022-10-09T03:35:44.161Z,16.7
2022-10-09T03:36:44.759Z,18.3
2022-10-09T03:37:45.352Z,13.4
2022-10-09T03:38:45.949Z,13.0
2022-10-09T03:39:46.544Z,13.3
2022-10-09T03:40:47.147Z,12.1
2022-10-09T03:41:47.751Z,14.8
2022-10-09T03:42:48.592Z,18.9
2022-10-09T03:43:49.273Z,18.6
2022-10-09T03:44:49.868Z,15.8
2022-10-09T03:45:50.464Z,17.5
2022-10-09T03:46:51.097Z,21.1
2022-10-09T03:47:51.710Z,24.3
2022-10-09T03:48:52.307Z,19.0
2022-10-09T03:49:52.902Z,26.2
2022-10-09T03:50:53.498Z,14.0
2022-10-09T03:51:54.093Z,16.0
2022-10-09T03:52:54.689Z,20.1
2022-10-09T03:53:55.286Z,20.8
2022-10-09T03:54:55.893Z,20.0
2022-10-09T03:55:56.480Z,21.4
2022-10-09T03:56:57.077Z,16.9
2022-10-09T03:57:57.672Z,17.5
2022-10-09T03:58:58.270Z,21.1
2022-10-09T03:59:58.865Z,22.5
2022-10-09T04:00:59.495Z,28.6
2022-10-09T04:02:00.056Z,16.7
2022-10-09T04:03:00.701Z,15.1
2022-10-09T04:04:01.247Z,15.1
2022-10-09T04:05:01.844Z,24.5
2022-10-09T04:06:02.437Z,19.0
2022-10-09T04:07:03.036Z,17.3
2022-10-09T04:08:03.632Z,18.3
2022-10-09T04:09:04.230Z,21.7
2022-10-09T04:10:04.824Z,26.2
2022-10-09T04:11:05.422Z,22.7
2022-10-09T04:12:06.041Z,25.3
2022-10-09T04:13:06.615Z,14.5
2022-10-09T04:14:07.208Z,18.4
2022-10-09T04:15:07.810Z,32.3
2022-10-09T04:16:08.447Z,19.2
2022-10-09T04:17:09.002Z,18.6
2022-10-09T04:18:09.598Z,24.9
2022-10-09T04:19:10.193Z,18.1
2022-10-09T04:20:10.790Z,15.7
2022-10-09T04:21:11.400Z,26.1
2022-10-09T04:22:12.006Z,20.5
2022-10-09T04:23:12.601Z,18.0
2022-10-09T04:24:13.195Z,13.2
2022-10-09T04:25:13.792Z,21.8
2022-10-09T04:26:14.387Z,17.9
2022-10-09T04:27:14.982Z,18.1
2022-10-09T04:28:15.605Z,20.5
2022-10-09T04:29:16.171Z,25.0
2022-10-09T04:30:16.771Z,24.1
2022-10-09T04:31:17.421Z,30.3
2022-10-09T04:32:17.976Z,21.5
2022-10-09T04:33:18.571Z,22.2
2022-10-09T04:34:19.166Z,23.2
2022-10-09T04:35:19.762Z,26.0
2022-10-09T04:36:20.358Z,29.0
2022-10-09T04:37:20.956Z,23.8
2022-10-09T04:38:21.550Z,22.5
2022-10-09T04:39:22.148Z,19.0
2022-10-09T04:40:22.740Z,23.4
2022-10-09T04:41:23.342Z,26.8
2022-10-09T04:42:23.935Z,25.8
2022-10-09T04:43:24.530Z,30.0
2022-10-09T04:44:25.127Z,27.4
2022-10-09T04:45:25.755Z,25.3
2022-10-09T04:46:26.318Z,29.2
2022-10-09T04:47:26.914Z,15.6
2022-10-09T04:48:27.512Z,23.1
2022-10-09T04:49:28.105Z,24.5
2022-10-09T04:50:28.700Z,27.9
2022-10-09T04:51:29.300Z,32.0
2022-10-09T04:52:29.893Z,29.3
2022-10-09T04:53:30.491Z,24.1
2022-10-09T04:54:31.086Z,19.5
2022-10-09T04:55:31.684Z,20.4
2022-10-09T04:56:32.281Z,20.3
2022-10-09T04:57:32.875Z,31.3
2022-10-09T04:58:33.469Z,26.0
2022-10-09T04:59:34.066Z,26.5
2022-10-09T05:00:34.660Z,30.9
2022-10-09T05:01:38.308Z,21.7
2022-10-09T05:02:36.897Z,25.5
2022-10-09T05:03:37.478Z,22.6
2022-10-09T05:04:38.073Z,23.6
2022-10-09T05:05:38.673Z,19.4
2022-10-09T05:06:39.264Z,21.8
2022-10-09T05:07:39.910Z,23.1
2022-10-09T05:08:40.506Z,19.2
2022-10-09T05:09:41.103Z,21.9
2022-10-09T05:10:41.700Z,19.4
2022-10-09T05:11:42.945Z,20.9
2022-10-09T05:12:43.619Z,18.4
2022-10-09T05:13:44.217Z,22.4
2022-10-09T05:14:44.813Z,20.0
2022-10-09T05:15:45.412Z,20.1
2022-10-09T05:17:11.731Z,19.0
2022-10-09T05:17:47.601Z,24.7
2022-10-09T05:18:48.198Z,21.4
2022-10-09T05:19:48.803Z,23.0
2022-10-09T05:20:49.418Z,28.3
2022-10-09T05:21:50.082Z,21.4
2022-10-09T05:22:51.038Z,18.3
2022-10-09T05:23:51.817Z,22.3
2022-10-09T05:24:52.415Z,22.1
2022-10-09T05:25:53.014Z,24.9
2022-10-09T05:26:53.611Z,18.1
2022-10-09T05:27:54.212Z,23.7
2022-10-09T05:28:54.807Z,26.8
2022-10-09T05:29:55.409Z,21.5
2022-10-09T05:30:56.010Z,28.3
2022-10-09T05:31:56.783Z,24.3
2022-10-09T05:32:57.393Z,22.8
2022-10-09T05:33:57.996Z,27.5
2022-10-09T05:34:58.592Z,23.6
2022-10-09T05:35:59.238Z,22.4
2022-10-09T05:36:59.809Z,21.7
2022-10-09T05:38:00.409Z,20.9
2022-10-09T05:39:01.008Z,27.1
2022-10-09T05:40:01.615Z,24.4
2022-10-09T05:41:02.207Z,22.7
2022-10-09T05:42:02.803Z,21.4
2022-10-09T05:43:03.401Z,28.7
2022-10-09T05:44:04.000Z,23.0
2022-10-09T05:45:04.601Z,29.1
2022-10-09T05:46:05.246Z,32.6
2022-10-09T05:47:05.832Z,30.1
2022-10-09T05:48:06.430Z,30.1
2022-10-09T05:49:07.031Z,18.2
2022-10-09T05:50:07.630Z,28.8
2022-10-09T05:51:08.228Z,28.6
2022-10-09T05:52:08.828Z,32.9
2022-10-09T05:53:09.427Z,28.4
2022-10-09T05:54:10.034Z,34.3
2022-10-09T05:55:10.650Z,23.9
2022-10-09T05:56:11.253Z,29.5
2022-10-09T05:57:11.853Z,31.7
2022-10-09T05:58:12.456Z,25.9
2022-10-09T05:59:13.053Z,34.4
2022-10-09T06:00:13.659Z,33.2
2022-10-09T06:01:14.325Z,25.9
2022-10-09T06:02:14.944Z,35.5
2022-10-09T06:03:15.531Z,26.6
2022-10-09T06:04:16.130Z,24.8
2022-10-09T06:05:16.730Z,23.4
2022-10-09T06:06:17.333Z,26.1
2022-10-09T06:07:17.934Z,26.9
2022-10-09T06:08:18.536Z,30.1
2022-10-09T06:09:19.137Z,30.8
2022-10-09T06:10:19.739Z,23.0
2022-10-09T06:11:20.340Z,20.6
2022-10-09T06:12:20.939Z,25.7
2022-10-09T06:13:21.543Z,26.0
2022-10-09T06:14:22.353Z,20.7
2022-10-09T06:15:22.940Z,23.7
2022-10-09T06:16:23.580Z,21.6
2022-10-09T06:17:24.141Z,23.6
2022-10-09T06:18:24.742Z,23.2
2022-10-09T06:19:25.358Z,28.5
2022-10-09T06:20:25.945Z,23.8
2022-10-09T06:21:26.554Z,27.8
2022-10-09T06:22:27.147Z,27.8
2022-10-09T06:23:28.089Z,26.5
2022-10-09T06:24:29.645Z,26.7
2022-10-09T06:25:30.257Z,23.2
2022-10-09T06:26:30.855Z,21.6
2022-10-09T06:27:31.463Z,18.9
2022-10-09T06:28:32.122Z,24.0
2022-10-09T06:29:32.726Z,27.6
2022-10-09T06:30:38.386Z,25.7
2022-10-09T06:31:34.920Z,23.7
2022-10-09T06:32:35.524Z,23.3
2022-10-09T06:33:36.127Z,27.9
2022-10-09T06:34:36.746Z,26.3
2022-10-09T06:35:37.346Z,26.0
2022-10-09T06:36:37.945Z,26.0
2022-10-09T06:37:38.563Z,25.3
2022-10-09T06:38:39.160Z,28.5
2022-10-09T06:39:39.760Z,26.3
2022-10-09T06:40:40.359Z,24.2
2022-10-09T06:41:40.957Z,21.8
2022-10-09T06:42:41.555Z,16.2
2022-10-09T06:43:42.155Z,20.6
2022-10-09T06:44:42.754Z,17.4
2022-10-09T06:45:43.380Z,16.3
2022-10-09T06:46:43.956Z,17.6
2022-10-09T06:47:44.559Z,13.4
2022-10-09T06:48:45.159Z,11.5
2022-10-09T06:49:45.760Z,11.3
2022-10-09T06:50:46.361Z,13.1
2022-10-09T06:51:46.959Z,15.2
2022-10-09T06:52:47.817Z,8.1
2022-10-09T06:53:48.531Z,14.6
2022-10-09T06:54:49.130Z,10.4
2022-10-09T06:55:49.731Z,7.3
2022-10-09T06:56:50.329Z,8.9
2022-10-09T06:57:50.927Z,6.7
2022-10-09T06:58:51.524Z,8.4
2022-10-09T06:59:52.126Z,5.8
2022-10-09T07:00:52.742Z,4.5
2022-10-09T07:01:53.373Z,4.7
2022-10-09T07:02:54.415Z,4.8
2022-10-09T07:03:55.090Z,4.3
2022-10-09T07:04:55.688Z,6.7
2022-10-09T07:05:56.286Z,3.6
2022-10-09T07:06:56.885Z,6.0
2022-10-09T07:07:57.484Z,4.3
2022-10-09T07:08:58.082Z,3.8
2022-10-09T07:09:58.684Z,4.8
2022-10-09T07:10:59.285Z,4.2
2022-10-09T07:11:59.882Z,5.1
2022-10-09T07:13:00.482Z,4.6
2022-10-09T07:14:01.083Z,3.3
2022-10-09T07:15:01.681Z,3.3
2022-10-09T07:16:04.813Z,7.2
2022-10-09T07:17:03.874Z,3.7
2022-10-09T07:18:04.472Z,6.1
2022-10-09T07:19:05.070Z,3.7
2022-10-09T07:20:05.670Z,4.0
2022-10-09T07:21:06.271Z,4.5
2022-10-09T07:22:06.873Z,7.4
2022-10-09T07:23:07.494Z,3.2
2022-10-09T07:24:08.095Z,3.0
2022-10-09T07:25:08.692Z,3.0
2022-10-09T07:26:09.292Z,5.2
2022-10-09T07:27:09.892Z,4.5
2022-10-09T07:28:10.553Z,3.5
2022-10-09T07:29:11.133Z,4.0
2022-10-09T07:30:11.731Z,4.2
2022-10-09T07:31:12.458Z,7.0
2022-10-09T07:32:13.039Z,3.2
2022-10-09T07:33:13.659Z,3.0
2022-10-09T07:34:14.263Z,4.6
2022-10-09T07:35:14.857Z,3.0
2022-10-09T07:36:15.457Z,3.1
2022-10-09T07:37:16.056Z,5.1
2022-10-09T07:38:16.658Z,6.0
2022-10-09T07:39:17.257Z,4.4
2022-10-09T07:40:17.861Z,3.4
2022-10-09T07:41:18.458Z,6.8
2022-10-09T07:42:19.062Z,8.1
2022-10-09T07:43:19.662Z,8.1
2022-10-09T07:44:20.262Z,8.5
2022-10-09T07:45:20.861Z,5.5
2022-10-09T07:46:21.523Z,5.2
2022-10-09T07:47:22.077Z,3.4
2022-10-09T07:48:22.675Z,3.7
2022-10-09T07:49:23.323Z,3.8
2022-10-09T07:50:23.926Z,4.4
2022-10-09T07:51:24.522Z,3.4
2022-10-09T07:52:25.125Z,5.3
2022-10-09T07:53:25.723Z,4.7
2022-10-09T07:54:26.325Z,5.8
2022-10-09T07:55:26.944Z,6.6
2022-10-09T07:56:27.544Z,7.9
2022-10-09T07:57:28.146Z,5.6
2022-10-09T07:58:28.745Z,7.6
2022-10-09T07:59:29.344Z,4.3
2022-10-09T08:00:29.949Z,6.5
2022-10-09T08:01:30.666Z,4.2
2022-10-09T08:02:31.371Z,5.5
2022-10-09T08:03:31.916Z,4.1
2022-10-09T08:04:32.538Z,9.5
2022-10-09T08:05:33.137Z,7.3
2022-10-09T08:06:33.741Z,8.0
2022-10-09T08:07:35.142Z,6.1
2022-10-09T08:08:35.755Z,6.7
2022-10-09T08:09:36.357Z,6.3
2022-10-09T08:10:36.976Z,5.0
2022-10-09T08:11:37.576Z,8.5
2022-10-09T08:12:38.178Z,4.9
2022-10-09T08:13:38.777Z,5.3
2022-10-09T08:14:39.381Z,5.4
2022-10-09T08:15:40.081Z,6.4
2022-10-09T08:16:40.649Z,4.9
2022-10-09T08:17:41.246Z,5.3
2022-10-09T08:18:41.858Z,5.7
2022-10-09T08:19:42.450Z,5.1
2022-10-09T08:20:43.049Z,4.5
2022-10-09T08:21:43.646Z,7.5
2022-10-09T08:22:44.246Z,8.8
2022-10-09T08:23:44.845Z,6.7
2022-10-09T08:24:45.449Z,6.3
2022-10-09T08:25:46.048Z,7.1
2022-10-09T08:26:46.654Z,5.9
2022-10-09T08:27:47.271Z,5.8
2022-10-09T08:28:47.895Z,11.2
2022-10-09T08:29:48.477Z,8.9
2022-10-09T08:30:49.111Z,7.3
2022-10-09T08:31:49.698Z,4.5
2022-10-09T08:32:50.980Z,7.8
2022-10-09T08:33:51.864Z,7.8
2022-10-09T08:34:52.488Z,4.6
2022-10-09T08:35:53.088Z,4.3
2022-10-09T08:36:53.694Z,4.6
2022-10-09T08:37:54.315Z,5.8
2022-10-09T08:38:54.940Z,4.6
2022-10-09T08:39:55.534Z,4.6
2022-10-09T08:40:58.231Z,9.3
2022-10-09T08:41:57.730Z,4.5
2022-10-09T08:42:58.331Z,5.3
2022-10-09T08:43:58.931Z,8.2
2022-10-09T08:44:59.533Z,4.5
2022-10-09T08:46:00.161Z,4.1
2022-10-09T08:47:00.737Z,5.4
2022-10-09T08:48:01.337Z,5.5
2022-10-09T08:49:01.937Z,5.8
2022-10-09T08:50:02.537Z,7.1
2022-10-09T08:51:03.138Z,8.0
2022-10-09T08:52:03.738Z,5.7
2022-10-09T08:53:04.341Z,4.0
2022-10-09T08:54:04.944Z,4.5
2022-10-09T08:55:05.544Z,4.5
2022-10-09T08:56:06.144Z,4.4
2022-10-09T08:57:06.763Z,6.5
2022-10-09T08:58:07.364Z,7.6
2022-10-09T08:59:07.964Z,4.9
2022-10-09T09:00:08.566Z,5.0
2022-10-09T09:01:09.169Z,7.3
2022-10-09T09:02:09.842Z,5.6
2022-10-09T09:03:10.470Z,4.8
2022-10-09T09:04:11.051Z,7.1
2022-10-09T09:05:11.651Z,9.2
2022-10-09T09:06:12.251Z,5.3
2022-10-09T09:07:12.853Z,5.1
2022-10-09T09:08:13.453Z,7.5
2022-10-09T09:09:14.056Z,6.0
2022-10-09T09:10:14.657Z,7.4
2022-10-09T09:11:19.374Z,7.1
2022-10-09T09:12:15.876Z,4.9
2022-10-09T09:13:16.478Z,4.9
2022-10-09T09:14:17.079Z,4.7
2022-10-09T09:15:17.678Z,4.7
2022-10-09T09:16:18.352Z,9.4
2022-10-09T09:17:18.926Z,4.5
2022-10-09T09:18:19.525Z,4.5
2022-10-09T09:19:20.127Z,4.5
2022-10-09T09:20:20.727Z,7.3
2022-10-09T09:21:21.329Z,7.5
2022-10-09T09:22:21.929Z,7.1
2022-10-09T09:23:22.530Z,7.2
2022-10-09T09:24:23.132Z,4.8
2022-10-09T09:25:23.735Z,10.1
2022-10-09T09:26:24.337Z,12.7
2022-10-09T09:27:24.939Z,6.2
2022-10-09T09:28:25.573Z,7.3
2022-10-09T09:29:26.137Z,8.6
2022-10-09T09:30:26.738Z,6.4
2022-10-09T09:31:27.421Z,6.3
2022-10-09T09:32:27.982Z,4.7
2022-10-09T09:33:30.543Z,4.3
2022-10-09T09:34:30.178Z,5.8
2022-10-09T09:35:30.779Z,5.6
2022-10-09T09:36:31.381Z,4.7
2022-10-09T09:37:31.991Z,4.5
2022-10-09T09:38:32.601Z,5.2
2022-10-09T09:40:37.730Z,6.4
2022-10-09T09:41:36.273Z,6.2
2022-10-09T09:42:36.877Z,7.3
2022-10-09T09:43:37.477Z,6.3
2022-10-09T09:44:38.098Z,5.0
2022-10-09T09:45:38.700Z,5.9
2022-10-09T09:46:39.341Z,6.0
2022-10-09T09:47:39.902Z,10.0
2022-10-09T09:48:40.504Z,6.3
2022-10-09T09:49:41.105Z,6.1
2022-10-09T09:50:50.561Z,5.5
2022-10-09T09:51:43.183Z,5.6
2022-10-09T09:52:43.787Z,5.8
2022-10-09T09:53:44.386Z,3.9
2022-10-09T09:54:45.004Z,9.5
2022-10-09T09:55:45.605Z,5.5
2022-10-09T09:57:18.336Z,5.1
2022-10-09T09:57:48.023Z,5.9
2022-10-09T09:58:48.749Z,7.0
2022-10-09T09:59:49.369Z,5.6
2022-10-09T10:00:49.991Z,4.1
2022-10-09T10:01:50.594Z,52.7
2022-10-09T10:02:51.858Z,7.6
2022-10-09T10:03:52.646Z,4.3
2022-10-09T10:04:53.291Z,4.1
2022-10-09T10:05:53.860Z,5.5
2022-10-09T10:06:54.460Z,6.9
2022-10-09T10:07:55.059Z,8.0
2022-10-09T10:08:55.660Z,4.7
2022-10-09T10:09:56.264Z,7.3
2022-10-09T10:10:56.903Z,7.3
2022-10-09T10:11:57.506Z,5.9
2022-10-09T10:12:58.105Z,8.2
2022-10-09T10:13:58.707Z,6.9
2022-10-09T10:14:59.306Z,6.1
2022-10-09T10:15:59.968Z,6.7
2022-10-09T10:17:00.523Z,2.3
2022-10-09T10:18:01.122Z,2.3
2022-10-09T10:19:01.721Z,4.8
2022-10-09T10:20:02.344Z,5.7
2022-10-09T10:21:02.943Z,13.8
2022-10-09T10:22:03.547Z,4.7
2022-10-09T10:23:04.145Z,5.6
2022-10-09T10:24:04.761Z,5.6
2022-10-09T10:25:05.349Z,6.7
2022-10-09T10:26:05.952Z,9.2
2022-10-09T10:27:06.570Z,4.9
2022-10-09T10:28:07.201Z,2.9
2022-10-09T10:29:07.779Z,5.7
2022-10-09T10:30:08.382Z,6.1
2022-10-09T10:31:09.074Z,4.2
2022-10-09T10:32:09.653Z,5.2
2022-10-09T10:33:10.255Z,4.8
2022-10-09T10:34:10.857Z,7.2
2022-10-09T10:35:11.468Z,6.8
2022-10-09T10:36:12.068Z,4.2
2022-10-09T10:37:12.672Z,5.0
2022-10-09T10:38:13.270Z,3.4
2022-10-09T10:39:13.873Z,4.0
2022-10-09T10:40:14.475Z,3.9
2022-10-09T10:41:15.073Z,4.1
2022-10-09T10:42:15.676Z,5.4
2022-10-09T10:43:16.281Z,5.4
2022-10-09T10:44:16.900Z,5.9
2022-10-09T10:45:17.503Z,5.2
2022-10-09T10:46:18.182Z,4.2
2022-10-09T10:47:18.774Z,7.1
2022-10-09T10:48:19.377Z,3.5
2022-10-09T10:49:19.980Z,3.0
2022-10-09T10:50:20.579Z,7.1
2022-10-09T10:51:21.182Z,4.4
2022-10-09T10:52:21.783Z,5.1
2022-10-09T10:53:22.383Z,3.8
2022-10-09T10:54:22.984Z,2.4
2022-10-09T10:55:23.587Z,3.2
2022-10-09T10:56:24.188Z,3.9
2022-10-09T10:57:24.791Z,2.5
2022-10-09T10:58:25.431Z,5.6
2022-10-09T10:59:26.033Z,10.0
2022-10-09T11:00:26.693Z,4.5
2022-10-09T11:01:27.338Z,4.3
2022-10-09T11:02:27.900Z,2.2
2022-10-09T11:03:28.534Z,3.3
2022-10-09T11:04:29.103Z,3.3
2022-10-09T11:05:29.705Z,3.3
2022-10-09T11:06:30.327Z,4.9
2022-10-09T11:07:30.935Z,5.6
2022-10-09T11:08:31.534Z,3.9
2022-10-09T11:09:32.136Z,6.5
2022-10-09T11:10:32.755Z,3.3
2022-10-09T11:11:33.357Z,4.0
2022-10-09T11:12:47.820Z,3.0
2022-10-09T11:13:35.552Z,2.5
2022-10-09T11:14:36.153Z,5.9
2022-10-09T11:15:36.772Z,4.1
2022-10-09T11:16:37.415Z,4.4
2022-10-09T11:17:37.997Z,5.1
2022-10-09T11:18:38.607Z,3.8
2022-10-09T11:19:43.168Z,5.6
2022-10-09T11:20:40.804Z,2.1
2022-10-09T11:21:41.404Z,5.2
2022-10-09T11:22:42.004Z,2.6
2022-10-09T11:23:42.607Z,3.3
2022-10-09T11:24:43.205Z,5.8
2022-10-09T11:25:43.811Z,4.1
2022-10-09T11:26:44.433Z,3.1
2022-10-09T11:27:45.032Z,6.3
2022-10-09T11:28:45.681Z,4.5
2022-10-09T11:29:46.249Z,3.6
2022-10-09T11:30:46.850Z,3.3
2022-10-09T11:31:47.512Z,2.9
2022-10-09T11:32:48.068Z,3.7
2022-10-09T11:33:48.667Z,7.4
2022-10-09T11:34:49.400Z,3.5
2022-10-09T11:35:49.971Z,4.5
2022-10-09T11:36:51.018Z,2.2
2022-10-09T11:37:51.906Z,2.1
2022-10-09T11:38:52.507Z,2.7
2022-10-09T11:39:53.125Z,3.1
2022-10-09T11:40:53.735Z,2.9
2022-10-09T11:41:54.346Z,4.3
2022-10-09T11:42:54.945Z,2.3
2022-10-09T11:43:55.547Z,3.8
2022-10-09T11:44:56.148Z,4.1
2022-10-09T11:45:56.886Z,2.2
2022-10-09T11:47:00.339Z,2.9
2022-10-09T11:47:59.062Z,2.7
2022-10-09T11:48:59.669Z,3.4
2022-10-09T11:50:00.283Z,5.2
2022-10-09T11:51:00.882Z,3.8
2022-10-09T11:52:01.483Z,4.0
2022-10-09T11:53:02.084Z,3.0
2022-10-09T11:54:02.687Z,2.3
2022-10-09T11:55:03.311Z,2.5
2022-10-09T11:56:03.912Z,5.3
2022-10-09T11:57:06.379Z,4.8
2022-10-09T11:58:06.107Z,5.1
2022-10-09T11:59:06.708Z,2.8
2022-10-09T12:00:07.312Z,4.5
2022-10-09T12:01:07.969Z,2.2
2022-10-09T12:02:08.591Z,2.7
2022-10-09T12:03:09.148Z,3.7
2022-10-09T12:04:09.749Z,3.7
2022-10-09T12:05:10.349Z,3.3
2022-10-09T12:06:10.949Z,3.3
2022-10-09T12:07:11.552Z,3.9
2022-10-09T12:08:15.352Z,2.0
2022-10-09T12:09:13.747Z,2.0
2022-10-09T12:10:14.379Z,2.6
2022-10-09T12:11:14.976Z,2.9
2022-10-09T12:12:15.578Z,3.5
2022-10-09T12:13:16.178Z,3.4
2022-10-09T12:14:20.184Z,4.8
2022-10-09T12:15:18.374Z,4.0
2022-10-09T12:16:18.996Z,6.9
2022-10-09T12:17:19.576Z,3.6
2022-10-09T12:18:20.180Z,3.3
2022-10-09T12:19:20.783Z,2.9
2022-10-09T12:20:21.402Z,1.8
2022-10-09T12:21:22.005Z,4.4
2022-10-09T12:22:22.633Z,3.9
2022-10-09T12:23:27.665Z,2.1
2022-10-09T12:24:24.820Z,2.0
2022-10-09T12:25:25.418Z,3.3
2022-10-09T12:26:26.021Z,2.3
2022-10-09T12:27:26.639Z,6.7
2022-10-09T12:28:27.265Z,3.4
2022-10-09T12:29:27.837Z,2.6
2022-10-09T12:30:28.491Z,2.1
2022-10-09T12:31:29.083Z,1.3
2022-10-09T12:32:29.673Z,3.9
2022-10-09T12:33:30.273Z,3.9
2022-10-09T12:34:30.873Z,3.7
2022-10-09T12:35:31.473Z,6.8
2022-10-09T12:36:32.077Z,3.2
2022-10-09T12:37:32.673Z,2.5
2022-10-09T12:38:33.278Z,3.6
2022-10-09T12:39:33.885Z,3.5
2022-10-09T12:40:34.484Z,2.4
2022-10-09T12:41:35.081Z,2.5
2022-10-09T12:42:35.685Z,2.9
2022-10-09T12:43:36.362Z,1.9
2022-10-09T12:44:36.903Z,1.9
2022-10-09T12:45:37.556Z,3.3
2022-10-09T12:46:38.108Z,2.2
2022-10-09T12:47:38.728Z,6.4
2022-10-09T12:48:39.329Z,2.4
2022-10-09T12:49:39.933Z,1.7
2022-10-09T12:50:40.533Z,5.8
2022-10-09T12:51:41.135Z,7.6
2022-10-09T12:52:41.736Z,4.9
2022-10-09T12:53:42.339Z,2.9
2022-10-09T12:54:42.960Z,2.3
2022-10-09T12:55:43.561Z,2.2
2022-10-09T12:56:44.162Z,4.9
2022-10-09T12:57:44.763Z,2.7
2022-10-09T12:58:45.364Z,2.4
2022-10-09T12:59:45.986Z,5.1
2022-10-09T13:00:46.589Z,4.2
2022-10-09T13:01:47.327Z,4.2
2022-10-09T13:02:48.227Z,3.1
2022-10-09T13:03:49.107Z,1.4
2022-10-09T13:04:49.708Z,1.6
2022-10-09T13:05:50.311Z,3.0
2022-10-09T13:06:50.930Z,2.2
2022-10-09T13:07:51.531Z,2.8
2022-10-09T13:08:52.152Z,2.9
2022-10-09T13:09:52.753Z,2.6
2022-10-09T13:10:53.354Z,1.7
2022-10-09T13:11:53.953Z,4.1
2022-10-09T13:12:54.557Z,2.1
2022-10-09T13:13:55.156Z,3.0
2022-10-09T13:14:55.759Z,0.8
2022-10-09T13:15:56.358Z,1.9
2022-10-09T13:16:57.019Z,4.3
2022-10-09T13:17:57.595Z,6.4
2022-10-09T13:18:58.204Z,2.2
2022-10-09T13:19:58.796Z,3.7
2022-10-09T13:20:59.399Z,2.6
2022-10-09T13:21:59.997Z,2.3
2022-10-09T13:23:00.600Z,4.8
2022-10-09T13:24:01.221Z,4.4
2022-10-09T13:25:01.850Z,4.3
2022-10-09T13:26:03.589Z,4.4
2022-10-09T13:27:04.040Z,1.9
2022-10-09T13:28:04.690Z,2.8
2022-10-09T13:29:05.293Z,3.0
2022-10-09T13:30:05.902Z,3.8
2022-10-09T13:31:06.520Z,3.3
2022-10-09T13:32:07.094Z,1.5
2022-10-09T13:33:07.699Z,3.1
2022-10-09T13:34:08.302Z,3.8
2022-10-09T13:35:08.904Z,2.8
2022-10-09T13:36:09.504Z,2.8
2022-10-09T13:37:10.106Z,2.2
2022-10-09T13:38:10.729Z,1.7
2022-10-09T13:39:11.334Z,2.4
2022-10-09T13:40:11.936Z,3.0
2022-10-09T13:41:12.538Z,6.4
2022-10-09T13:42:13.138Z,2.9
2022-10-09T13:43:13.742Z,1.8